Search for airport 
image banner adimage banner adimage banner ad
image banner ad

L88 - New Cuyama

Located in New Cuyama, United States

ICAO - L88, IATA -

Data provided by Airmate  

General information

Coordinates: N34°56'24" W119°41'8"
Elevation is 2203 feet MSL.
Magnetic variation is 14° East
View others Airports in California

Operational data

Special qualification required
Current time UTC:
Current local time:
Weather at : KIZA - Santa Ynez ( 51 km )
METAR: KIZA 211255Z AUTO 07004KT 5SM BR OVC004 12/11 A2996 RMK AO2
View NOTAMs / SUP AIP / TFR affecting this airport [VIEW]
Communications frequencies: [VIEW]

Runways:

RWY identifierQFULength (ft)Width (ft)SurfaceLDA (ft)
10394060ASPH
28394060ASPH

Airport contact information

Address: New Cuyama United States

Satellite view of L88